createdAt,value
2023-01-11T00:08:02.157Z,95.2
2023-01-11T00:20:02.191Z,95.3
2023-01-11T00:32:02.192Z,95.4
2023-01-11T00:44:02.160Z,95.4
2023-01-11T00:56:02.124Z,95.4
2023-01-11T01:08:02.198Z,95.5
2023-01-11T01:20:02.155Z,95.7
2023-01-11T01:32:02.111Z,95.7
2023-01-11T01:44:02.233Z,95.8
2023-01-11T01:56:02.169Z,95.7
2023-01-11T02:08:02.112Z,95.9
2023-01-11T02:20:02.164Z,96.6
2023-01-11T02:32:02.157Z,96.9
2023-01-11T02:44:02.193Z,97.0
2023-01-11T02:56:02.176Z,97.0
2023-01-11T03:08:02.162Z,97.2
2023-01-11T03:20:02.115Z,97.2
2023-01-11T03:32:02.141Z,97.2
2023-01-11T03:44:02.114Z,96.8
2023-01-11T03:56:02.188Z,96.6
2023-01-11T04:08:02.127Z,96.1
2023-01-11T04:20:02.147Z,95.7
2023-01-11T04:32:02.228Z,95.6
2023-01-11T04:44:02.108Z,95.9
2023-01-11T04:56:02.194Z,96.0
2023-01-11T05:08:02.114Z,96.0
2023-01-11T05:20:02.189Z,96.2
2023-01-11T05:32:02.228Z,96.3
2023-01-11T05:44:02.205Z,96.6
2023-01-11T05:56:02.221Z,96.5
2023-01-11T06:08:02.150Z,96.6
2023-01-11T06:20:02.101Z,96.6
2023-01-11T06:32:02.155Z,96.7
2023-01-11T06:44:02.107Z,96.8
2023-01-11T06:56:02.114Z,97.0
2023-01-11T07:08:02.131Z,96.6
2023-01-11T07:20:02.123Z,96.8
2023-01-11T07:32:02.118Z,97.2
2023-01-11T07:44:02.124Z,97.3
2023-01-11T07:56:02.126Z,97.3
2023-01-11T08:08:02.465Z,97.4
2023-01-11T08:20:02.202Z,97.5
2023-01-11T08:32:02.215Z,97.5
2023-01-11T08:44:02.111Z,97.5
2023-01-11T08:56:02.109Z,97.5
2023-01-11T09:08:02.233Z,97.5
2023-01-11T09:20:02.099Z,97.5
2023-01-11T09:32:02.155Z,97.5
2023-01-11T09:44:02.110Z,97.5
2023-01-11T09:56:02.124Z,97.5
2023-01-11T10:20:03.404Z,97.5
2023-01-11T10:32:02.109Z,97.5
2023-01-11T10:44:02.175Z,97.5
2023-01-11T10:56:02.210Z,97.4
2023-01-11T11:08:02.172Z,97.3
2023-01-11T11:20:02.147Z,97.4
2023-01-11T11:32:02.253Z,96.0
2023-01-11T11:44:02.107Z,95.0
2023-01-11T11:56:02.196Z,95.5
2023-01-11T12:08:02.137Z,92.3
2023-01-11T12:20:02.162Z,91.6
2023-01-11T12:32:02.138Z,89.2
2023-01-11T12:44:02.106Z,86.4
2023-01-11T12:56:02.117Z,86.9
2023-01-11T13:08:02.252Z,85.9
2023-01-11T13:20:02.103Z,87.4
2023-01-11T13:32:02.195Z,86.5
2023-01-11T13:44:02.996Z,85.7
2023-01-11T13:56:02.112Z,85.1
2023-01-11T14:08:02.108Z,82.7
2023-01-11T14:20:02.157Z,80.0
2023-01-11T14:32:02.216Z,81.2
2023-01-11T14:44:02.147Z,80.8
2023-01-11T14:56:02.170Z,82.8
2023-01-11T15:08:02.113Z,82.8
2023-01-11T15:20:02.193Z,82.2
2023-01-11T15:32:02.230Z,81.4
2023-01-11T15:44:02.118Z,81.7
2023-01-11T15:56:02.216Z,81.0
2023-01-11T16:08:02.103Z,81.4
2023-01-11T16:20:02.266Z,81.3
2023-01-11T16:32:02.199Z,82.2
2023-01-11T16:44:02.143Z,82.6
2023-01-11T16:56:02.156Z,82.9
2023-01-11T17:08:02.106Z,83.6
2023-01-11T17:20:02.142Z,84.8
2023-01-11T17:32:02.161Z,85.9
2023-01-11T17:44:02.153Z,87.1
2023-01-11T17:56:02.135Z,86.3
2023-01-11T18:08:02.112Z,86.4
2023-01-11T18:20:02.123Z,87.0
2023-01-11T18:32:02.109Z,87.8
2023-01-11T18:44:02.120Z,87.4
2023-01-11T18:56:02.104Z,87.8
2023-01-11T19:08:02.108Z,88.4
2023-01-11T19:20:02.176Z,88.8
2023-01-11T19:32:02.167Z,88.7
2023-01-11T19:44:02.143Z,89.0
2023-01-11T19:56:02.115Z,88.5
2023-01-11T20:08:02.120Z,87.9
2023-01-11T20:20:02.118Z,87.5
2023-01-11T20:32:24.701Z,88.1
2023-01-11T20:44:03.220Z,88.2
2023-01-11T20:56:02.191Z,87.7
2023-01-11T21:08:02.116Z,86.2
2023-01-11T21:20:02.228Z,85.6
2023-01-11T21:32:02.211Z,85.1
2023-01-11T21:44:02.122Z,85.7
2023-01-11T21:56:02.208Z,85.0
2023-01-11T22:08:02.123Z,84.9
2023-01-11T22:20:02.116Z,84.7
2023-01-11T22:32:02.207Z,84.6
2023-01-11T22:44:02.104Z,85.2
2023-01-11T22:56:02.841Z,84.9
2023-01-11T23:08:02.103Z,84.9
2023-01-11T23:20:02.165Z,84.7
2023-01-11T23:32:02.279Z,84.5
2023-01-11T23:44:02.244Z,84.8
2023-01-11T23:56:02.119Z,85.0
